Time;durP1;ratioP1;P1;durP2;ratioP2;P2;SDS_P1;SDS_P2;PMS_P1;PMS_P2;Temp;Humidity;BMP_temperature;BMP_pressure;BME280_temperature;BME280_humidity;BME280_pressure;Samples;Min_cycle;Max_cycle;Signal;HPM_P1;HPM_P2
2022/10/22 00:01:20;;;;;;;;;52.00;41.00;;;;;14.59;55.40;98641.88;6020845;28;96392;-70
2022/10/22 00:04:24;;;;;;;;;50.40;40.00;;;;;14.46;54.83;98614.34;6026606;28;98529;-66
2022/10/22 00:07:28;;;;;;;;;47.00;38.00;;;;;14.70;54.23;98635.50;6021377;29;97453;-68
2022/10/22 00:10:32;;;;;;;;;47.00;38.00;;;;;14.67;53.93;98621.63;6020860;28;96361;-68
2022/10/22 00:13:35;;;;;;;;;48.60;38.60;;;;;14.86;54.04;98649.22;6020308;29;96983;-70
2022/10/22 00:16:39;;;;;;;;;48.75;39.00;;;;;14.87;53.66;98643.56;6021033;28;97003;-70
2022/10/22 00:19:44;;;;;;;;;49.00;39.40;;;;;14.85;53.86;98639.47;6019921;28;96425;-70
2022/10/22 00:22:47;;;;;;;;;49.00;40.40;;;;;14.85;54.06;98632.16;6020341;28;96496;-70
2022/10/22 00:25:52;;;;;;;;;48.00;39.00;;;;;14.87;53.82;98632.69;6019691;28;96618;-68
2022/10/22 00:28:55;;;;;;;;;47.00;38.20;;;;;14.89;53.83;98617.00;6032387;28;96631;-69
2022/10/22 00:31:58;;;;;;;;;46.60;38.00;;;;;14.88;53.58;98628.91;6018501;28;96330;-70
2022/10/22 00:35:04;;;;;;;;;46.50;36.00;;;;;14.86;53.88;98617.47;6018341;29;97065;-70
2022/10/22 00:38:07;;;;;;;;;49.00;39.00;;;;;14.89;53.99;98606.13;6018204;28;96710;-69
2022/10/22 00:41:11;;;;;;;;;46.20;37.60;;;;;14.87;53.72;98621.00;6018925;28;96377;-69
2022/10/22 00:44:51;;;;;;;;;46.50;38.00;;;;;14.87;53.91;98621.84;6018652;29;96708;-69
2022/10/22 00:47:59;;;;;;;;;44.00;36.60;;;;;14.87;53.70;98637.28;6018901;29;96310;-70
2022/10/22 00:51:07;;;;;;;;;48.00;38.00;;;;;14.88;54.12;98633.50;6007795;28;96470;-70
2022/10/22 00:54:11;;;;;;;;;45.00;36.00;;;;;14.87;53.54;98629.16;6019815;29;96274;-70
2022/10/22 00:57:15;;;;;;;;;46.25;38.00;;;;;14.88;53.45;98618.06;6019941;28;96247;-70
2022/10/22 01:00:19;;;;;;;;;46.40;38.00;;;;;14.91;53.58;98616.72;6019020;28;98088;-69
2022/10/22 01:03:23;;;;;;;;;45.67;38.00;;;;;14.93;53.37;98620.00;6018713;29;98522;-70
2022/10/22 01:06:31;;;;;;;;;47.40;38.40;;;;;14.97;53.22;98613.78;6020192;28;96700;-70
2022/10/22 01:09:50;;;;;;;;;45.00;37.40;;;;;15.01;53.12;98614.91;6018501;28;96504;-70
2022/10/22 01:13:05;;;;;;;;;43.60;35.80;;;;;15.03;53.26;98603.81;6018486;28;96367;-70
2022/10/22 01:16:12;;;;;;;;;45.00;38.00;;;;;15.01;53.35;98600.53;6019703;28;96802;-70
2022/10/22 01:19:32;;;;;;;;;46.40;38.00;;;;;14.98;53.37;98596.44;6019838;28;96290;-71
2022/10/22 01:22:43;;;;;;;;;44.40;38.00;;;;;14.96;53.56;98604.00;6033779;28;96941;-69
2022/10/22 01:25:57;;;;;;;;;45.00;36.00;;;;;14.93;53.57;98604.53;6027764;28;97368;-70
2022/10/22 01:29:10;;;;;;;;;44.00;36.20;;;;;14.94;53.57;98592.59;6032889;28;96377;-70
2022/10/22 01:32:17;;;;;;;;;45.50;38.00;;;;;14.91;53.54;98598.53;6018171;29;96323;-70
2022/10/22 01:35:25;;;;;;;;;45.60;37.60;;;;;14.91;53.45;98606.69;6020283;28;96349;-70
2022/10/22 01:38:30;;;;;;;;;48.20;39.00;;;;;14.92;53.32;98602.06;6020014;28;96277;-70
2022/10/22 01:41:35;;;;;;;;;45.00;36.00;;;;;14.91;53.16;98605.84;6020054;28;96764;-69
2022/10/22 01:44:39;;;;;;;;;46.00;37.40;;;;;14.89;53.28;98610.72;6019718;28;96391;-70
2022/10/22 01:47:54;;;;;;;;;47.80;38.40;;;;;14.77;53.26;98588.34;6018749;28;96906;-70
2022/10/22 01:51:11;;;;;;;;;45.75;37.00;;;;;14.80;53.33;98585.13;6019879;29;96142;-69
2022/10/22 01:54:27;;;;;;;;;45.00;37.00;;;;;14.70;53.60;98585.84;6019365;28;96256;-68
2022/10/22 01:57:36;;;;;;;;;42.60;36.00;;;;;14.70;53.32;98581.25;6018977;29;96974;-69
2022/10/22 02:00:53;;;;;;;;;45.50;38.00;;;;;14.64;53.39;98587.69;6018974;28;96638;-70
2022/10/22 02:04:03;;;;;;;;;42.40;36.00;;;;;14.48;53.46;98571.47;6019015;28;97144;-70
2022/10/22 02:07:10;;;;;;;;;44.75;36.00;;;;;14.48;53.64;98587.75;6019144;28;96905;-67
2022/10/22 02:10:15;;;;;;;;;43.20;34.40;;;;;14.34;53.97;98587.31;6019580;28;97547;-70
2022/10/22 02:13:23;;;;;;;;;41.50;35.50;;;;;14.24;54.21;98590.72;6019476;28;96526;-69
2022/10/22 02:16:32;;;;;;;;;44.25;36.00;;;;;14.16;54.57;98588.44;6018596;29;96635;-70
2022/10/22 02:19:41;;;;;;;;;39.60;33.60;;;;;14.09;55.14;98573.44;6032924;28;96747;-70
2022/10/22 02:22:46;;;;;;;;;44.00;35.00;;;;;14.01;54.95;98582.84;6026828;28;96461;-70
2022/10/22 02:25:53;;;;;;;;;44.25;37.00;;;;;13.93;55.05;98587.88;6032988;28;96463;-69
2022/10/22 02:29:03;;;;;;;;;43.25;35.00;;;;;13.80;55.28;98579.03;6017804;29;96458;-69
2022/10/22 02:32:11;;;;;;;;;44.40;36.00;;;;;13.73;55.61;98589.19;6017612;29;96493;-67
2022/10/22 02:35:19;;;;;;;;;39.80;34.80;;;;;13.67;55.64;98590.22;6019187;29;97618;-70
2022/10/22 02:38:24;;;;;;;;;41.60;34.00;;;;;13.62;55.58;98600.97;6019076;29;96949;-70
2022/10/22 02:41:28;;;;;;;;;42.60;35.60;;;;;13.58;55.85;98594.41;6019236;28;96343;-70
2022/10/22 02:44:32;;;;;;;;;43.40;36.00;;;;;13.53;56.01;98597.06;6017325;29;96879;-70
2022/10/22 02:47:37;;;;;;;;;45.00;36.00;;;;;13.51;55.90;98601.06;6018209;28;96663;-69
2022/10/22 02:50:40;;;;;;;;;44.80;35.80;;;;;13.44;56.20;98599.34;6017650;29;97021;-69
2022/10/22 02:53:44;;;;;;;;;42.60;36.00;;;;;13.38;56.02;98597.63;6017738;29;96372;-70
2022/10/22 02:56:47;;;;;;;;;40.50;33.50;;;;;13.20;56.04;98584.31;6018776;29;96426;-70
2022/10/22 02:59:50;;;;;;;;;42.00;36.00;;;;;13.31;57.18;98598.84;6018701;29;96800;-70
2022/10/22 03:02:55;;;;;;;;;41.00;34.00;;;;;13.26;56.56;98596.06;6017655;29;96324;-70
2022/10/22 03:05:59;;;;;;;;;42.80;35.40;;;;;13.22;56.55;98590.31;6017142;29;96900;-70
2022/10/22 03:09:02;;;;;;;;;39.50;33.00;;;;;13.15;56.86;98578.81;6017789;29;96508;-70
2022/10/22 03:12:07;;;;;;;;;37.00;32.20;;;;;13.08;56.58;98571.91;6022067;28;96236;-70
2022/10/22 03:15:10;;;;;;;;;37.00;33.00;;;;;13.07;56.62;98587.31;6025601;28;96303;-70
2022/10/22 03:18:15;;;;;;;;;36.00;32.00;;;;;13.03;56.63;98591.59;6018027;29;97104;-70
2022/10/22 03:21:29;;;;;;;;;43.00;35.00;;;;;12.86;56.77;98574.50;6007544;28;96734;-70
2022/10/22 03:24:36;;;;;;;;;38.40;33.00;;;;;12.99;57.16;98587.75;6017655;29;96335;-69
2022/10/22 03:27:41;;;;;;;;;41.40;35.00;;;;;12.97;57.67;98581.75;6017320;29;97269;-70
2022/10/22 03:30:45;;;;;;;;;37.50;33.00;;;;;12.95;57.87;98597.41;6017093;28;96671;-70
2022/10/22 03:33:49;;;;;;;;;35.00;30.00;;;;;12.89;57.89;98596.50;6030646;28;96477;-70
2022/10/22 03:36:54;;;;;;;;;34.00;30.00;;;;;12.85;58.28;98598.03;6017289;29;96674;-70
2022/10/22 03:39:57;;;;;;;;;34.50;31.00;;;;;12.81;57.67;98599.59;6021005;28;96254;-69
2022/10/22 03:43:01;;;;;;;;;40.00;32.80;;;;;12.76;57.30;98598.66;6021695;29;96389;-70
2022/10/22 03:46:04;;;;;;;;;36.40;31.40;;;;;12.72;57.44;98601.03;6021960;28;96380;-70
2022/10/22 03:49:09;;;;;;;;;36.50;32.25;;;;;12.67;57.53;98587.44;6022252;28;96304;-69
2022/10/22 03:52:14;;;;;;;;;37.00;32.00;;;;;12.69;57.42;98590.72;6019485;29;97048;-69
2022/10/22 03:55:18;;;;;;;;;31.40;29.60;;;;;12.66;57.48;98577.66;6020493;29;96484;-70
2022/10/22 03:58:21;;;;;;;;;32.00;28.50;;;;;12.70;57.88;98583.44;6021841;29;97025;-69
2022/10/22 04:01:26;;;;;;;;;34.60;30.60;;;;;12.67;57.78;98576.59;6012022;29;96687;-70
2022/10/22 04:04:31;;;;;;;;;33.00;30.00;;;;;12.66;57.94;98576.88;6022199;29;96643;-70
2022/10/22 04:07:35;;;;;;;;;36.40;32.00;;;;;12.65;57.56;98565.22;6020368;29;96980;-70
2022/10/22 04:10:38;;;;;;;;;36.00;31.00;;;;;12.59;57.64;98555.38;6021667;28;97607;-68
2022/10/22 04:13:42;;;;;;;;;34.00;31.00;;;;;12.58;59.09;98548.31;6021192;28;96532;-70
2022/10/22 04:16:45;;;;;;;;;30.40;28.40;;;;;12.55;57.77;98546.94;6010379;29;97100;-69
2022/10/22 04:19:50;;;;;;;;;35.00;30.60;;;;;12.53;58.54;98559.84;6035671;28;96883;-70
2022/10/22 04:22:54;;;;;;;;;32.20;30.00;;;;;12.54;58.33;98553.41;6021428;29;96141;-70
2022/10/22 04:26:01;;;;;;;;;31.00;30.00;;;;;12.58;58.33;98556.44;6020631;28;96851;-70
2022/10/22 04:29:07;;;;;;;;;37.20;32.00;;;;;12.56;58.47;98553.97;6034060;28;97335;-70
2022/10/22 04:32:17;;;;;;;;;34.00;30.00;;;;;12.52;58.66;98557.38;6018604;29;97151;-70
2022/10/22 04:35:21;;;;;;;;;34.25;30.50;;;;;12.50;58.54;98563.06;6021061;29;96389;-70
2022/10/22 04:38:25;;;;;;;;;32.00;29.40;;;;;12.48;58.43;98553.53;6020065;28;96779;-70
2022/10/22 04:41:30;;;;;;;;;38.00;32.00;;;;;12.56;58.79;98564.78;6023698;28;97723;-69
2022/10/22 04:44:34;;;;;;;;;35.00;32.00;;;;;12.56;58.37;98558.53;6036954;28;96844;-70
2022/10/22 04:47:37;;;;;;;;;32.60;28.80;;;;;12.48;58.60;98548.13;6026707;28;96974;-70
2022/10/22 04:50:43;;;;;;;;;33.60;31.20;;;;;12.41;58.63;98550.16;6019167;29;96529;-70
2022/10/22 04:53:47;;;;;;;;;34.00;30.60;;;;;12.34;58.33;98571.09;6019203;29;96390;-70
2022/10/22 04:56:51;;;;;;;;;38.25;33.00;;;;;12.32;58.23;98568.63;6023982;28;98669;-70
2022/10/22 04:59:54;;;;;;;;;38.80;33.00;;;;;12.31;57.93;98577.00;6036622;28;96632;-70
2022/10/22 05:02:57;;;;;;;;;37.00;32.00;;;;;12.29;58.23;98588.06;6036120;28;96668;-69
2022/10/22 05:06:02;;;;;;;;;40.00;32.00;;;;;12.10;58.19;98557.69;6010059;28;97054;-69
2022/10/22 05:09:07;;;;;;;;;39.50;31.75;;;;;12.23;58.35;98575.50;6018866;29;96769;-70
2022/10/22 05:12:11;;;;;;;;;36.75;31.75;;;;;12.17;58.25;98581.06;6019373;28;98319;-69
2022/10/22 05:15:15;;;;;;;;;34.00;31.00;;;;;12.19;58.74;98589.72;6008264;28;99106;-70
2022/10/22 05:18:18;;;;;;;;;39.50;33.00;;;;;12.23;58.70;98582.78;6035962;28;98216;-69
2022/10/22 05:21:26;;;;;;;;;38.20;33.00;;;;;12.10;58.69;98576.59;6022894;28;96457;-67
2022/10/22 05:24:31;;;;;;;;;42.20;35.60;;;;;12.14;58.65;98588.56;6015118;29;96321;-68
2022/10/22 05:27:34;;;;;;;;;38.40;33.40;;;;;12.08;58.42;98584.09;6019018;29;96896;-70
2022/10/22 05:30:38;;;;;;;;;38.00;33.00;;;;;12.07;58.32;98571.66;6019108;29;96085;-69
2022/10/22 05:33:42;;;;;;;;;37.00;32.00;;;;;11.91;58.38;98541.88;6020990;28;97276;-70
2022/10/22 05:36:47;;;;;;;;;37.20;32.00;;;;;12.09;58.05;98558.72;6018323;28;96281;-69
2022/10/22 05:39:50;;;;;;;;;36.50;32.00;;;;;12.11;58.01;98556.63;6020505;28;96365;-69
2022/10/22 05:43:14;;;;;;;;;37.75;32.00;;;;;12.15;57.84;98559.66;6017979;28;96295;-69
2022/10/22 05:46:19;;;;;;;;;36.00;33.00;;;;;12.21;57.97;98564.13;6019108;28;96548;-70
2022/10/22 05:49:25;;;;;;;;;35.00;32.00;;;;;12.32;58.50;98576.75;6016290;29;96749;-69
2022/10/22 05:52:29;;;;;;;;;38.25;33.00;;;;;12.61;58.53;98587.59;6023266;28;99006;-70
2022/10/22 05:55:37;;;;;;;;;38.00;33.00;;;;;12.94;58.28;98596.59;6043111;28;96400;-70
2022/10/22 05:58:41;;;;;;;;;39.25;32.00;;;;;13.17;57.62;98584.00;6021737;28;97415;-70
2022/10/22 06:01:44;;;;;;;;;39.00;34.00;;;;;13.12;57.31;98571.22;6020336;28;96401;-70
2022/10/22 06:04:47;;;;;;;;;39.40;32.00;;;;;13.25;56.91;98583.59;6016502;28;98876;-70
2022/10/22 06:07:52;;;;;;;;;39.00;33.00;;;;;13.27;56.70;98581.47;6018222;28;97883;-69
2022/10/22 06:10:57;;;;;;;;;37.40;32.40;;;;;13.31;56.27;98571.78;6021033;28;97040;-70
2022/10/22 06:14:00;;;;;;;;;37.00;32.00;;;;;13.33;56.13;98581.31;6019211;28;96714;-69
2022/10/22 06:17:03;;;;;;;;;40.00;32.80;;;;;13.28;55.81;98592.06;6024830;28;96847;-69
2022/10/22 06:20:08;;;;;;;;;40.80;33.60;;;;;13.88;54.84;98578.56;6022049;28;96263;-70
2022/10/22 06:23:14;;;;;;;;;41.60;36.00;;;;;16.48;49.38;98605.06;6017624;29;96507;-70
2022/10/22 06:26:17;;;;;;;;;40.00;33.00;;;;;18.16;44.90;98610.38;6016512;29;96864;-69
2022/10/22 06:29:21;;;;;;;;;41.00;34.00;;;;;20.25;40.24;98597.69;6005995;28;96482;-69
2022/10/22 06:32:24;;;;;;;;;38.60;33.00;;;;;22.36;36.70;98605.69;6016543;28;96980;-70
2022/10/22 06:35:27;;;;;;;;;38.00;33.00;;;;;24.32;32.84;98604.09;6029950;28;96521;-69
2022/10/22 06:38:32;;;;;;;;;38.60;33.40;;;;;26.03;30.01;98599.00;6012118;28;96589;-70
2022/10/22 06:41:35;;;;;;;;;36.00;32.00;;;;;27.40;27.76;98609.31;6021097;28;96608;-69
2022/10/22 06:44:39;;;;;;;;;34.00;32.00;;;;;28.81;26.39;98615.47;6018487;28;96470;-70
2022/10/22 06:47:42;;;;;;;;;36.80;31.00;;;;;29.85;24.60;98628.50;6000845;28;96618;-69
2022/10/22 06:50:45;;;;;;;;;36.00;30.00;;;;;31.07;23.26;98629.31;6019353;28;97148;-68
2022/10/22 06:53:50;;;;;;;;;33.00;30.00;;;;;32.25;22.00;98628.56;6019246;28;96646;-69
2022/10/22 06:56:54;;;;;;;;;30.40;27.00;;;;;33.08;20.96;98629.59;6015235;29;97637;-69
2022/10/22 06:59:57;;;;;;;;;31.60;29.00;;;;;34.13;19.93;98639.72;6016460;28;97081;-71
2022/10/22 07:03:01;;;;;;;;;30.40;30.00;;;;;34.92;19.18;98641.28;6020392;28;96630;-70
2022/10/22 07:06:07;;;;;;;;;34.00;30.00;;;;;33.34;20.18;98644.72;6028777;28;96330;-71
2022/10/22 07:09:12;;;;;;;;;32.40;29.00;;;;;30.90;22.05;98647.16;6027459;28;96616;-70
2022/10/22 07:12:16;;;;;;;;;35.00;30.50;;;;;28.59;25.16;98651.97;6034293;28;97643;-71
2022/10/22 07:15:20;;;;;;;;;32.40;30.40;;;;;26.62;27.55;98658.00;6024234;28;96220;-69
2022/10/22 07:18:23;;;;;;;;;35.00;32.00;;;;;24.97;29.34;98650.19;6032790;28;96933;-70
2022/10/22 07:21:26;;;;;;;;;34.80;32.00;;;;;23.76;31.53;98635.00;6008318;29;96356;-70
2022/10/22 07:24:31;;;;;;;;;35.20;31.80;;;;;22.75;32.77;98620.84;6021170;28;96379;-69
2022/10/22 07:27:34;;;;;;;;;39.33;33.00;;;;;22.09;33.65;98637.81;6023917;28;96716;-70
2022/10/22 07:30:39;;;;;;;;;37.20;33.20;;;;;21.40;35.09;98607.41;6021922;28;96975;-69
2022/10/22 07:33:42;;;;;;;;;35.00;31.00;;;;;21.17;36.17;98622.81;6021027;28;96258;-69
2022/10/22 07:36:46;;;;;;;;;33.00;30.00;;;;;20.86;36.70;98623.53;6026969;28;96380;-69
2022/10/22 07:39:50;;;;;;;;;38.75;33.00;;;;;20.51;37.31;98638.50;6028675;28;97266;-71
2022/10/22 07:42:54;;;;;;;;;34.60;30.40;;;;;20.06;38.64;98659.75;6020252;28;97575;-70
2022/10/22 07:45:58;;;;;;;;;33.00;30.00;;;;;19.68;39.54;98656.00;6024995;28;97490;-70
2022/10/22 07:49:02;;;;;;;;;33.60;30.00;;;;;19.30;40.21;98632.22;6017003;28;96560;-70
2022/10/22 07:52:06;;;;;;;;;34.60;30.60;;;;;19.07;40.94;98635.63;6023943;28;96703;-68
2022/10/22 07:55:12;;;;;;;;;34.60;31.60;;;;;18.94;41.41;98662.50;6021434;28;96809;-69
2022/10/22 07:58:15;;;;;;;;;33.40;30.00;;;;;18.87;42.23;98642.84;6020274;28;96518;-68
2022/10/22 08:01:19;;;;;;;;;28.40;27.40;;;;;18.64;42.00;98610.75;6021370;28;96371;-69
2022/10/22 08:04:22;;;;;;;;;36.00;30.00;;;;;18.72;42.54;98623.00;6034307;28;96422;-70
2022/10/22 08:07:26;;;;;;;;;33.20;30.00;;;;;18.85;42.38;98609.56;5993122;28;96704;-69
2022/10/22 08:10:31;;;;;;;;;29.00;27.40;;;;;18.87;42.54;98601.88;6022467;28;96310;-70
2022/10/22 08:13:34;;;;;;;;;30.80;27.80;;;;;19.14;41.99;98612.38;6031188;28;97352;-69
2022/10/22 08:16:37;;;;;;;;;30.40;29.00;;;;;19.81;40.96;98622.53;6028055;28;96526;-70
2022/10/22 08:19:41;;;;;;;;;29.40;27.00;;;;;20.85;39.15;98621.91;6025619;28;96716;-70
2022/10/22 08:22:45;;;;;;;;;27.00;24.40;;;;;21.45;37.61;98612.00;6023308;28;96794;-70
2022/10/22 08:25:51;;;;;;;;;27.00;26.00;;;;;21.50;37.24;98617.41;6020939;28;96322;-70
2022/10/22 08:28:54;;;;;;;;;28.60;25.40;;;;;21.10;37.74;98616.88;6026494;28;96549;-69
2022/10/22 08:31:57;;;;;;;;;28.75;27.00;;;;;20.89;38.13;98631.97;6031343;28;96395;-70
2022/10/22 08:35:00;;;;;;;;;27.40;25.40;;;;;20.64;38.07;98662.44;6020706;28;96981;-69
2022/10/22 08:38:04;;;;;;;;;27.00;26.60;;;;;20.38;38.81;98663.84;6020310;28;96780;-70
2022/10/22 08:41:13;;;;;;;;;26.00;24.00;;;;;20.06;39.48;98648.00;6021377;28;96432;-70
2022/10/22 08:44:38;;;;;;;;;25.00;24.50;;;;;19.87;40.06;98648.72;6019620;28;96852;-69
2022/10/22 08:48:01;;;;;;;;;28.80;26.80;;;;;19.72;40.32;98653.50;6028705;28;96497;-69
2022/10/22 08:51:05;;;;;;;;;25.50;24.00;;;;;19.49;40.84;98666.00;6028675;28;96368;-66
2022/10/22 08:54:25;;;;;;;;;30.20;27.60;;;;;19.24;41.53;98647.03;6020111;28;96497;-68
2022/10/22 08:57:49;;;;;;;;;28.00;27.00;;;;;19.08;42.00;98676.34;6018598;28;97182;-69
2022/10/22 09:00:59;;;;;;;;;25.40;25.00;;;;;18.88;42.71;98671.00;6019720;28;96686;-70
2022/10/22 09:04:09;;;;;;;;;26.60;25.60;;;;;18.71;43.32;98678.72;6032629;28;96339;-70
2022/10/22 09:07:13;;;;;;;;;27.00;25.00;;;;;18.60;42.94;98677.94;6033676;28;97022;-70
2022/10/22 09:10:17;;;;;;;;;29.00;26.60;;;;;18.49;43.46;98676.31;6024593;28;96472;-70
2022/10/22 09:13:23;;;;;;;;;28.00;25.40;;;;;18.45;43.77;98669.78;6029669;28;97028;-70
2022/10/22 09:16:37;;;;;;;;;30.40;26.00;;;;;18.41;43.38;98657.78;6021338;28;96397;-70
2022/10/22 09:19:51;;;;;;;;;26.60;24.60;;;;;18.50;43.81;98631.53;6019034;28;97692;-70
2022/10/22 09:23:05;;;;;;;;;29.00;28.00;;;;;18.62;44.40;98612.16;6014344;28;96462;-70
2022/10/22 09:26:13;;;;;;;;;27.60;25.60;;;;;18.90;43.92;98634.13;6032460;28;96633;-68
2022/10/22 09:29:23;;;;;;;;;29.20;25.00;;;;;18.99;43.64;98642.53;6018235;28;96669;-69
2022/10/22 09:32:27;;;;;;;;;29.40;28.00;;;;;19.06;43.30;98650.44;6000487;28;96704;-70
2022/10/22 09:35:34;;;;;;;;;30.00;27.00;;;;;19.07;43.46;98660.22;5986293;29;96976;-69
2022/10/22 09:38:44;;;;;;;;;31.60;28.40;;;;;19.21;43.30;98650.31;6005997;28;96636;-70
2022/10/22 09:41:47;;;;;;;;;29.00;26.60;;;;;19.25;43.05;98646.75;6005479;28;96266;-71
2022/10/22 09:44:55;;;;;;;;;29.40;25.60;;;;;19.20;43.29;98640.50;6018424;28;96603;-70
2022/10/22 09:48:12;;;;;;;;;30.25;28.25;;;;;19.20;43.63;98641.31;6028820;28;96332;-70
2022/10/22 09:51:20;;;;;;;;;27.40;25.40;;;;;19.08;43.30;98637.28;6014429;28;96944;-70
2022/10/22 09:54:25;;;;;;;;;30.40;27.40;;;;;19.07;43.50;98641.94;6008695;28;96872;-68
2022/10/22 09:57:30;;;;;;;;;27.00;25.00;;;;;18.82;43.38;98631.97;6003710;29;98603;-68
2022/10/22 10:00:38;;;;;;;;;29.80;27.20;;;;;18.93;43.95;98655.41;6020903;28;96357;-70
2022/10/22 10:03:41;;;;;;;;;28.50;25.50;;;;;18.86;44.33;98648.63;6021462;28;96274;-70
2022/10/22 10:06:45;;;;;;;;;30.40;27.20;;;;;18.87;44.10;98652.97;6023510;28;96616;-70
2022/10/22 10:09:50;;;;;;;;;27.00;25.00;;;;;18.88;44.33;98660.06;6013058;28;96501;-69
2022/10/22 10:13:01;;;;;;;;;30.60;27.60;;;;;18.84;44.58;98659.81;6022476;28;96607;-70
2022/10/22 10:16:13;;;;;;;;;30.60;26.60;;;;;18.80;44.76;98666.94;6024948;28;98081;-70
2022/10/22 10:19:40;;;;;;;;;30.20;28.20;;;;;18.73;44.96;98641.84;6018130;28;97210;-70
2022/10/22 10:22:57;;;;;;;;;29.33;27.67;;;;;18.79;44.91;98645.38;6028838;28;96375;-69
2022/10/22 10:26:09;;;;;;;;;27.80;26.00;;;;;18.77;45.14;98655.75;6034228;28;96579;-70
2022/10/22 10:29:24;;;;;;;;;24.50;22.50;;;;;18.77;45.27;98672.94;6013091;28;96745;-69
2022/10/22 10:32:48;;;;;;;;;30.25;27.00;;;;;18.78;45.04;98676.50;6003812;28;97253;-70
2022/10/22 10:36:02;;;;;;;;;28.00;25.40;;;;;18.81;44.80;98674.06;6016251;28;96554;-67
2022/10/22 10:39:11;;;;;;;;;29.20;26.00;;;;;18.75;44.88;98664.22;6022522;28;96848;-70
2022/10/22 10:42:23;;;;;;;;;27.00;25.00;;;;;18.79;44.70;98669.94;6020277;28;96319;-70
2022/10/22 10:45:33;;;;;;;;;27.00;25.50;;;;;18.74;44.78;98664.50;6018024;28;96580;-70
2022/10/22 10:48:50;;;;;;;;;25.00;23.00;;;;;18.70;44.83;98667.00;6020961;28;96299;-70
2022/10/22 10:52:03;;;;;;;;;25.60;24.20;;;;;18.68;45.03;98660.16;6031100;28;96500;-70
2022/10/22 10:55:18;;;;;;;;;25.20;23.80;;;;;18.60;45.29;98658.84;6020422;28;96586;-67
2022/10/22 10:58:30;;;;;;;;;28.25;25.25;;;;;18.61;45.23;98671.41;6020438;28;96458;-69
2022/10/22 11:01:45;;;;;;;;;29.00;26.00;;;;;18.60;45.43;98667.03;6022915;28;96670;-69
2022/10/22 11:05:10;;;;;;;;;28.00;25.00;;;;;18.62;45.89;98662.09;6029754;28;96270;-70
2022/10/22 11:08:20;;;;;;;;;28.20;25.20;;;;;18.65;46.67;98658.81;6014964;28;97251;-70
2022/10/22 11:11:32;;;;;;;;;28.00;25.00;;;;;18.68;48.06;98662.88;6036226;28;96319;-70
2022/10/22 11:14:41;;;;;;;;;30.40;28.40;;;;;18.67;48.11;98667.53;6020945;29;96710;-69
2022/10/22 11:17:48;;;;;;;;;31.00;28.40;;;;;18.66;48.16;98668.66;6021514;28;98674;-69
2022/10/22 11:21:16;;;;;;;;;30.33;28.00;;;;;18.61;48.82;98663.22;6024580;28;96671;-69
2022/10/22 11:24:25;;;;;;;;;27.20;25.00;;;;;18.58;49.73;98658.28;6017388;29;97469;-70
2022/10/22 11:27:35;;;;;;;;;31.60;27.40;;;;;18.56;49.25;98655.84;6020308;28;97003;-69
2022/10/22 11:30:43;;;;;;;;;29.00;27.50;;;;;18.56;49.26;98655.84;6020069;28;96723;-68
2022/10/22 11:33:54;;;;;;;;;30.00;28.00;;;;;18.50;49.49;98647.91;5991441;29;96877;-69
2022/10/22 11:37:19;;;;;;;;;30.00;27.60;;;;;18.46;49.88;98653.13;6009629;28;96430;-69
2022/10/22 11:40:32;;;;;;;;;28.60;27.60;;;;;18.35;49.90;98653.44;6009051;29;97415;-70
2022/10/22 11:43:53;;;;;;;;;27.60;26.00;;;;;18.21;50.85;98647.75;6022456;28;96878;-69
2022/10/22 11:46:58;;;;;;;;;30.00;27.00;;;;;18.11;52.84;98650.50;6021529;29;96712;-70
2022/10/22 11:50:27;;;;;;;;;32.00;28.50;;;;;17.98;53.98;98637.44;6022358;28;96388;-69
2022/10/22 11:53:34;;;;;;;;;28.75;27.00;;;;;17.86;54.23;98631.44;6017265;28;96906;-68
2022/10/22 11:56:39;;;;;;;;;29.00;28.00;;;;;17.75;54.56;98630.63;6022190;28;96467;-70
2022/10/22 11:59:49;;;;;;;;;32.00;28.80;;;;;17.70;55.01;98612.38;6019624;28;97255;-69
2022/10/22 12:03:03;;;;;;;;;31.40;29.40;;;;;17.58;56.27;98600.91;6019844;28;96845;-69
2022/10/22 12:06:19;;;;;;;;;30.60;26.60;;;;;17.51;56.49;98608.53;6018277;28;96448;-69
2022/10/22 12:09:29;;;;;;;;;31.50;28.50;;;;;17.47;57.19;98604.72;6025039;28;96283;-68
2022/10/22 12:12:38;;;;;;;;;34.80;31.00;;;;;17.46;57.26;98607.72;6027403;28;96376;-69
2022/10/22 12:15:48;;;;;;;;;35.50;32.00;;;;;17.42;57.49;98601.19;6031166;28;96497;-70
2022/10/22 12:19:01;;;;;;;;;34.40;31.40;;;;;17.45;57.24;98596.00;6024869;28;96776;-69
2022/10/22 12:22:15;;;;;;;;;42.00;35.00;;;;;17.49;57.20;98601.75;6021109;28;96276;-69
2022/10/22 12:25:24;;;;;;;;;44.00;35.00;;;;;17.47;57.59;98603.91;6020252;29;98178;-70
2022/10/22 12:28:27;;;;;;;;;38.50;32.00;;;;;17.38;57.90;98609.09;6021117;28;96223;-69
2022/10/22 12:31:36;;;;;;;;;35.80;31.80;;;;;17.39;57.05;98597.09;6021358;29;96734;-68
2022/10/22 12:34:45;;;;;;;;;35.00;32.00;;;;;17.37;56.53;98603.91;6021057;29;97493;-70
2022/10/22 12:37:50;;;;;;;;;40.60;34.60;;;;;17.35;57.18;98606.09;6013921;29;96355;-69
2022/10/22 12:40:56;;;;;;;;;37.60;33.00;;;;;17.27;57.80;98604.72;6023235;28;96469;-70
2022/10/22 12:44:00;;;;;;;;;33.00;31.00;;;;;17.26;57.68;98600.34;6040173;28;96366;-70
2022/10/22 12:47:06;;;;;;;;;37.80;31.20;;;;;17.26;57.26;98603.91;6029057;28;96348;-70
2022/10/22 12:50:17;;;;;;;;;35.20;31.80;;;;;17.28;57.48;98599.00;6022275;28;96607;-69
2022/10/22 12:53:26;;;;;;;;;35.60;31.00;;;;;17.31;57.85;98603.91;6029173;28;96750;-70
2022/10/22 12:56:34;;;;;;;;;34.80;30.00;;;;;17.23;58.05;98590.00;6027951;28;96559;-69
2022/10/22 12:59:39;;;;;;;;;39.00;32.40;;;;;17.24;57.97;98592.47;6020662;28;96839;-69
2022/10/22 13:02:45;;;;;;;;;35.00;31.60;;;;;17.41;58.79;98614.00;6023791;28;96570;-69
2022/10/22 13:05:49;;;;;;;;;39.60;33.00;;;;;17.44;59.21;98604.47;6031071;28;96319;-66
2022/10/22 13:09:02;;;;;;;;;38.60;32.80;;;;;17.42;58.95;98601.19;6032364;28;97660;-69
2022/10/22 13:12:15;;;;;;;;;36.25;32.00;;;;;17.39;59.45;98591.66;6026066;28;96240;-69
2022/10/22 13:15:20;;;;;;;;;37.00;32.00;;;;;17.36;60.45;98602.25;6025166;28;96464;-69
2022/10/22 13:18:25;;;;;;;;;36.40;30.40;;;;;17.14;62.20;98581.56;6021353;28;96343;-70
2022/10/22 13:21:34;;;;;;;;;39.25;33.00;;;;;17.29;61.46;98602.56;6019337;28;97427;-69
2022/10/22 13:24:49;;;;;;;;;33.80;31.80;;;;;17.16;61.15;98578.56;6018111;29;97239;-70
2022/10/22 13:27:56;;;;;;;;;40.00;34.00;;;;;17.36;61.30;98602.25;6019574;28;96419;-70
2022/10/22 13:31:02;;;;;;;;;35.60;30.40;;;;;17.35;61.40;98597.94;6017615;28;96894;-70
2022/10/22 13:34:08;;;;;;;;;40.40;33.00;;;;;17.38;60.87;98598.19;6019193;28;96778;-69
2022/10/22 13:37:16;;;;;;;;;38.60;32.60;;;;;17.35;60.81;98597.94;6019585;28;96813;-68
2022/10/22 13:40:19;;;;;;;;;39.00;33.00;;;;;17.20;61.81;98585.91;6019436;28;96845;-70
2022/10/22 13:43:25;;;;;;;;;36.00;33.00;;;;;17.27;61.89;98602.00;6026815;28;96861;-69
2022/10/22 13:46:29;;;;;;;;;41.00;33.50;;;;;17.20;62.21;98596.81;6038406;28;96368;-69
2022/10/22 13:49:32;;;;;;;;;38.00;33.00;;;;;17.17;62.04;98583.75;6029667;28;96571;-68
2022/10/22 13:52:40;;;;;;;;;36.60;32.00;;;;;17.11;63.30;98581.28;6024309;28;96392;-68
2022/10/22 13:55:45;;;;;;;;;39.00;33.50;;;;;17.09;63.88;98580.75;6021873;28;96376;-69
2022/10/22 13:58:50;;;;;;;;;41.25;34.75;;;;;17.06;64.14;98575.81;6020552;28;97602;-69
2022/10/22 14:01:54;;;;;;;;;38.00;32.60;;;;;16.97;64.56;98572.81;6019663;28;96764;-70
2022/10/22 14:05:01;;;;;;;;;38.00;33.00;;;;;17.05;64.06;98563.31;6024497;28;96401;-69
2022/10/22 14:08:11;;;;;;;;;37.75;32.00;;;;;16.98;64.39;98551.84;6023603;28;96558;-70
2022/10/22 14:11:14;;;;;;;;;41.80;34.00;;;;;17.09;64.25;98567.94;6006146;28;96556;-68
2022/10/22 14:14:19;;;;;;;;;38.00;34.00;;;;;17.12;63.90;98563.84;6026456;28;96242;-69
2022/10/22 14:17:23;;;;;;;;;38.00;33.00;;;;;16.98;64.27;98547.22;6024956;28;97847;-69
2022/10/22 14:20:30;;;;;;;;;40.00;33.75;;;;;17.12;63.74;98569.28;6011043;29;96314;-70